Terminal Aerodrome Forecast
Issued by NWS Central Illinois

Home | Current Version | Previous Version | Text Only | Print | Product List | Glossary On
Versions: 1 2 3 4 5 6 7 8 9 10 11 12 13 14 15 16 17 18 19
383
FTUS43 KILX 240540
TAFSPI
TAF
KSPI 240540Z 2406/2506 VRB05KT P6SM OVC018
     FM241800 15010KT P6SM BKN020
     FM242000 14013KT P6SM BKN040
     FM250000 16014G23KT P6SM BKN035=

USA.gov is the U.S. government's official web portal to all federal, state and local government web resources and services.